Pagrindinis puslapis
METAR-TAF:

METAR-TAF

Oro uostai :

Porter County Municipal Airport

Valparaiso, Indiana, Jungtinės Amerikos Valstijos

platuma: 41-27-11N, ilguma: 086-59-53W, Aukštis: 234 m

Dabartinis oras

Ataskaita buvo paskelbta 1 valandą ir 7 minutes, ne 10:56 UTC
Vėjas 5 kt iš Rytų
Temperatūra 3°C
Drėgmė 81%
Slėgis 1017 hPa
Matomumas: 16.1 km
Giedras dangus

METAR: KVPZ 151056Z AUTO 10005KT 10SM CLR 03/00 A3002 RMK AO2 SLP169 T00330000 $

Laikas: 07:03 (12:03 UTC)


TAF: trūkstamas

Orai ataskaitas ir orų prognozės (METAR, TAF).

turimą stotys yra geltonos ir raudonos taškus žemėlapyje.

Perkelti pele per norėdami pamatyti stoties vardą.

Tada spustelėkite, norėdami matyti oro stebėjimo ir prognozės.

Norėdami pakeisti žemėlapį: spustelėkite ant žalios mygtukų su juodo kryžiaus žemyn,; žalią mygtuką su brūkšneliu, jei norite nutolinti; arba žalių rodyklių gretimoms žemėlapius.


METAR-TAF: